sensor_id;sensor_type;location;lat;lon;timestamp;pressure;altitude;pressure_sealevel;temperature;humidity
39105;BME280;46464;51.154;13.812;2023-01-20T00:00:23;98571.31;;;-0.05;100.00
39105;BME280;46464;51.154;13.812;2023-01-20T00:02:49;98566.88;;;0.00;100.00
39105;BME280;46464;51.154;13.812;2023-01-20T00:05:16;98563.41;;;-0.05;100.00
39105;BME280;46464;51.154;13.812;2023-01-20T00:07:42;98569.44;;;0.03;100.00
39105;BME280;46464;51.154;13.812;2023-01-20T00:10:09;98565.00;;;0.05;100.00
39105;BME280;46464;51.154;13.812;2023-01-20T00:12:35;98571.19;;;0.04;100.00
39105;BME280;46464;51.154;13.812;2023-01-20T00:15:02;98569.31;;;0.09;100.00
39105;BME280;46464;51.154;13.812;2023-01-20T00:17:29;98568.44;;;0.10;100.00
39105;BME280;46464;51.154;13.812;2023-01-20T00:19:55;98573.78;;;0.06;100.00
39105;BME280;46464;51.154;13.812;2023-01-20T00:22:21;98572.81;;;0.10;100.00
39105;BME280;46464;51.154;13.812;2023-01-20T00:24:48;98579.06;;;0.06;100.00
39105;BME280;46464;51.154;13.812;2023-01-20T00:27:15;98584.28;;;0.10;100.00
39105;BME280;46464;51.154;13.812;2023-01-20T00:29:45;98586.06;;;0.08;100.00
39105;BME280;46464;51.154;13.812;2023-01-20T00:32:11;98586.91;;;0.10;100.00
39105;BME280;46464;51.154;13.812;2023-01-20T00:34:38;98589.50;;;0.13;100.00
39105;BME280;46464;51.154;13.812;2023-01-20T00:37:04;98596.53;;;0.14;100.00
39105;BME280;46464;51.154;13.812;2023-01-20T00:39:31;98599.13;;;0.18;100.00
39105;BME280;46464;51.154;13.812;2023-01-20T00:41:58;98594.72;;;0.17;100.00
39105;BME280;46464;51.154;13.812;2023-01-20T00:44:24;98599.94;;;0.20;100.00
39105;BME280;46464;51.154;13.812;2023-01-20T00:46:50;98604.38;;;0.19;100.00
39105;BME280;46464;51.154;13.812;2023-01-20T00:49:17;98607.94;;;0.17;100.00
39105;BME280;46464;51.154;13.812;2023-01-20T00:51:43;98615.94;;;0.12;100.00
39105;BME280;46464;51.154;13.812;2023-01-20T00:54:10;98608.94;;;0.09;100.00
39105;BME280;46464;51.154;13.812;2023-01-20T00:56:36;98607.22;;;0.07;100.00
39105;BME280;46464;51.154;13.812;2023-01-20T00:59:02;98618.56;;;0.12;100.00
39105;BME280;46464;51.154;13.812;2023-01-20T01:01:29;98623.88;;;0.10;100.00
39105;BME280;46464;51.154;13.812;2023-01-20T01:03:55;98621.28;;;0.07;100.00
39105;BME280;46464;51.154;13.812;2023-01-20T01:06:22;98635.28;;;0.14;100.00
39105;BME280;46464;51.154;13.812;2023-01-20T01:08:49;98638.00;;;0.09;100.00
39105;BME280;46464;51.154;13.812;2023-01-20T01:11:15;98638.84;;;0.10;100.00
39105;BME280;46464;51.154;13.812;2023-01-20T01:13:41;98639.69;;;0.12;100.00
39105;BME280;46464;51.154;13.812;2023-01-20T01:16:09;98646.84;;;0.07;100.00
39105;BME280;46464;51.154;13.812;2023-01-20T01:18:36;98650.34;;;0.09;100.00
39105;BME280;46464;51.154;13.812;2023-01-20T01:21:06;98653.03;;;0.04;100.00
39105;BME280;46464;51.154;13.812;2023-01-20T01:23:33;98656.50;;;0.06;100.00
39105;BME280;46464;51.154;13.812;2023-01-20T01:25:59;98665.22;;;0.13;100.00
39105;BME280;46464;51.154;13.812;2023-01-20T01:28:25;98669.66;;;0.11;100.00
39105;BME280;46464;51.154;13.812;2023-01-20T01:30:52;98672.25;;;0.12;100.00
39105;BME280;46464;51.154;13.812;2023-01-20T01:33:18;98676.81;;;0.04;100.00
39105;BME280;46464;51.154;13.812;2023-01-20T01:35:53;98675.94;;;0.02;100.00
39105;BME280;46464;51.154;13.812;2023-01-20T01:38:19;98679.44;;;0.04;100.00
39105;BME280;46464;51.154;13.812;2023-01-20T01:40:52;98669.69;;;0.09;100.00
39105;BME280;46464;51.154;13.812;2023-01-20T01:43:26;98666.19;;;0.09;100.00
39105;BME280;46464;51.154;13.812;2023-01-20T01:45:52;98681.16;;;0.07;100.00
39105;BME280;46464;51.154;13.812;2023-01-20T01:48:20;98682.97;;;0.03;100.00
39105;BME280;46464;51.154;13.812;2023-01-20T01:51:08;98684.72;;;0.04;100.00
39105;BME280;46464;51.154;13.812;2023-01-20T01:53:38;98690.88;;;0.05;100.00
39105;BME280;46464;51.154;13.812;2023-01-20T01:56:05;98685.56;;;0.06;100.00
39105;BME280;46464;51.154;13.812;2023-01-20T01:58:33;98690.84;;;0.06;100.00
39105;BME280;46464;51.154;13.812;2023-01-20T02:01:00;98690.81;;;0.09;100.00
39105;BME280;46464;51.154;13.812;2023-01-20T02:03:27;98690.75;;;0.12;100.00
39105;BME280;46464;51.154;13.812;2023-01-20T02:05:57;98695.22;;;0.07;100.00
39105;BME280;46464;51.154;13.812;2023-01-20T02:08:23;98695.22;;;0.07;100.00
39105;BME280;46464;51.154;13.812;2023-01-20T02:10:50;98690.88;;;0.05;100.00
39105;BME280;46464;51.154;13.812;2023-01-20T02:13:16;98697.03;;;0.05;100.00
39105;BME280;46464;51.154;13.812;2023-01-20T02:21:13;98692.50;;;0.15;100.00
39105;BME280;46464;51.154;13.812;2023-01-20T02:23:54;98689.03;;;0.10;100.00
39105;BME280;46464;51.154;13.812;2023-01-20T02:26:33;98696.94;;;0.11;100.00
39105;BME280;46464;51.154;13.812;2023-01-20T02:29:12;98701.22;;;0.19;100.00
39105;BME280;46464;51.154;13.812;2023-01-20T02:34:28;98704.88;;;0.11;100.00
39105;BME280;46464;51.154;13.812;2023-01-20T02:36:56;98698.66;;;0.12;100.00
39105;BME280;46464;51.154;13.812;2023-01-20T02:39:26;98706.69;;;0.06;100.00
39105;BME280;46464;51.154;13.812;2023-01-20T02:42:09;98712.81;;;0.08;100.00
39105;BME280;46464;51.154;13.812;2023-01-20T02:44:49;98712.88;;;0.05;100.00
39105;BME280;46464;51.154;13.812;2023-01-20T02:49:56;98711.03;;;0.10;100.00
39105;BME280;46464;51.154;13.812;2023-01-20T02:52:29;98724.28;;;0.07;100.00
39105;BME280;46464;51.154;13.812;2023-01-20T02:54:58;98723.38;;;0.08;100.00
39105;BME280;46464;51.154;13.812;2023-01-20T02:57:42;98729.66;;;0.03;100.00
39105;BME280;46464;51.154;13.812;2023-01-20T03:00:15;98732.34;;;-0.02;100.00
39105;BME280;46464;51.154;13.812;2023-01-20T03:02:42;98736.84;;;-0.07;100.00
39105;BME280;46464;51.154;13.812;2023-01-20T03:05:20;98734.16;;;-0.06;100.00
39105;BME280;46464;51.154;13.812;2023-01-20T03:07:49;98741.31;;;-0.12;100.00
39105;BME280;46464;51.154;13.812;2023-01-20T03:10:18;98738.72;;;-0.15;100.00
39105;BME280;46464;51.154;13.812;2023-01-20T03:12:51;98732.41;;;-0.07;100.00
39105;BME280;46464;51.154;13.812;2023-01-20T03:15:20;98735.91;;;-0.05;100.00
39105;BME280;46464;51.154;13.812;2023-01-20T03:17:49;98744.66;;;-0.01;100.00
39105;BME280;46464;51.154;13.812;2023-01-20T03:20:15;98743.78;;;-0.02;100.00
39105;BME280;46464;51.154;13.812;2023-01-20T03:22:42;98744.66;;;-0.03;100.00
39105;BME280;46464;51.154;13.812;2023-01-20T03:25:09;98749.09;;;-0.03;100.00
39105;BME280;46464;51.154;13.812;2023-01-20T03:27:36;98748.25;;;-0.07;100.00
39105;BME280;46464;51.154;13.812;2023-01-20T03:30:05;98753.50;;;-0.05;100.00
39105;BME280;46464;51.154;13.812;2023-01-20T03:32:31;98763.25;;;-0.10;100.00
39105;BME280;46464;51.154;13.812;2023-01-20T03:34:58;98762.47;;;-0.15;100.00
39105;BME280;46464;51.154;13.812;2023-01-20T03:37:24;98758.81;;;-0.07;100.00
39105;BME280;46464;51.154;13.812;2023-01-20T03:39:50;98767.53;;;-0.02;100.00
39105;BME280;46464;51.154;13.812;2023-01-20T03:42:21;98770.31;;;-0.09;100.00
39105;BME280;46464;51.154;13.812;2023-01-20T03:47:26;98782.56;;;-0.04;100.00
39105;BME280;46464;51.154;13.812;2023-01-20T03:49:59;98775.50;;;-0.03;100.00
39105;BME280;46464;51.154;13.812;2023-01-20T03:52:32;98772.03;;;-0.07;100.00
39105;BME280;46464;51.154;13.812;2023-01-20T03:55:19;98773.75;;;-0.04;100.00
39105;BME280;46464;51.154;13.812;2023-01-20T03:57:57;98777.28;;;-0.05;100.00
39105;BME280;46464;51.154;13.812;2023-01-20T04:00:29;98782.59;;;-0.07;100.00
39105;BME280;46464;51.154;13.812;2023-01-20T04:02:57;98783.56;;;-0.12;100.00
39105;BME280;46464;51.154;13.812;2023-01-20T04:05:24;98785.28;;;-0.11;100.00
39105;BME280;46464;51.154;13.812;2023-01-20T04:07:52;98779.09;;;-0.07;100.00
39105;BME280;46464;51.154;13.812;2023-01-20T04:10:21;98786.22;;;-0.15;100.00
39105;BME280;46464;51.154;13.812;2023-01-20T04:12:48;98774.72;;;-0.10;100.00
39105;BME280;46464;51.154;13.812;2023-01-20T04:15:14;98787.00;;;-0.09;100.00
39105;BME280;46464;51.154;13.812;2023-01-20T04:17:42;98782.63;;;-0.11;100.00
39105;BME280;46464;51.154;13.812;2023-01-20T04:20:09;98791.31;;;-0.02;100.00
39105;BME280;46464;51.154;13.812;2023-01-20T04:22:45;98797.50;;;-0.04;100.00
39105;BME280;46464;51.154;13.812;2023-01-20T04:25:29;98796.56;;;0.02;100.00
39105;BME280;46464;51.154;13.812;2023-01-20T04:27:56;98802.72;;;0.01;100.00
39105;BME280;46464;51.154;13.812;2023-01-20T04:30:22;98807.16;;;0.00;100.00
39105;BME280;46464;51.154;13.812;2023-01-20T04:32:48;98797.50;;;-0.04;100.00
39105;BME280;46464;51.154;13.812;2023-01-20T04:35:16;98802.88;;;-0.10;100.00
39105;BME280;46464;51.154;13.812;2023-01-20T04:37:43;98807.22;;;-0.08;100.00
39105;BME280;46464;51.154;13.812;2023-01-20T04:40:10;98809.84;;;-0.05;100.00
39105;BME280;46464;51.154;13.812;2023-01-20T04:42:36;98812.53;;;-0.09;100.00
39105;BME280;46464;51.154;13.812;2023-01-20T04:45:03;98822.16;;;-0.04;100.00
39105;BME280;46464;51.154;13.812;2023-01-20T04:47:32;98818.63;;;-0.04;100.00
39105;BME280;46464;51.154;13.812;2023-01-20T04:49:59;98830.19;;;-0.13;100.00
39105;BME280;46464;51.154;13.812;2023-01-20T04:52:25;98830.25;;;-0.16;100.00
39105;BME280;46464;51.154;13.812;2023-01-20T04:54:52;98832.91;;;-0.19;100.00
39105;BME280;46464;51.154;13.812;2023-01-20T04:57:18;98837.31;;;-0.20;100.00
39105;BME280;46464;51.154;13.812;2023-01-20T04:59:45;98839.97;;;-0.20;100.00
39105;BME280;46464;51.154;13.812;2023-01-20T05:02:11;98843.47;;;-0.19;100.00
39105;BME280;46464;51.154;13.812;2023-01-20T05:04:40;98850.53;;;-0.20;100.00
39105;BME280;46464;51.154;13.812;2023-01-20T05:07:06;98844.34;;;-0.19;100.00
39105;BME280;46464;51.154;13.812;2023-01-20T05:09:33;98851.41;;;-0.21;100.00
39105;BME280;46464;51.154;13.812;2023-01-20T05:11:59;98851.41;;;-0.21;100.00
39105;BME280;46464;51.154;13.812;2023-01-20T05:14:26;98849.69;;;-0.23;100.00
39105;BME280;46464;51.154;13.812;2023-01-20T05:16:52;98848.81;;;-0.25;100.00
39105;BME280;46464;51.154;13.812;2023-01-20T05:19:18;98862.88;;;-0.23;100.00
39105;BME280;46464;51.154;13.812;2023-01-20T05:21:45;98861.91;;;-0.14;100.00
39105;BME280;46464;51.154;13.812;2023-01-20T05:24:11;98871.47;;;-0.06;100.00
39105;BME280;46464;51.154;13.812;2023-01-20T05:26:38;98874.19;;;-0.12;100.00
39105;BME280;46464;51.154;13.812;2023-01-20T05:29:04;98875.06;;;-0.13;100.00
39105;BME280;46464;51.154;13.812;2023-01-20T05:31:31;98869.84;;;-0.18;100.00
39105;BME280;46464;51.154;13.812;2023-01-20T05:33:57;98874.28;;;-0.21;100.00
39105;BME280;46464;51.154;13.812;2023-01-20T05:36:24;98874.28;;;-0.20;100.00
39105;BME280;46464;51.154;13.812;2023-01-20T05:38:50;98880.38;;;-0.14;100.00
39105;BME280;46464;51.154;13.812;2023-01-20T05:41:16;98879.59;;;-0.23;100.00
39105;BME280;46464;51.154;13.812;2023-01-20T05:43:43;98881.31;;;-0.19;100.00
39105;BME280;46464;51.154;13.812;2023-01-20T05:46:10;98876.91;;;-0.21;100.00
39105;BME280;46464;51.154;13.812;2023-01-20T05:48:36;98886.66;;;-0.25;100.00
39105;BME280;46464;51.154;13.812;2023-01-20T05:51:02;98886.66;;;-0.25;100.00
39105;BME280;46464;51.154;13.812;2023-01-20T05:53:30;98896.31;;;-0.24;100.00
39105;BME280;46464;51.154;13.812;2023-01-20T05:56:03;98896.28;;;-0.21;100.00
39105;BME280;46464;51.154;13.812;2023-01-20T05:58:30;98898.94;;;-0.21;100.00
39105;BME280;46464;51.154;13.812;2023-01-20T06:01:03;98897.22;;;-0.25;100.00
39105;BME280;46464;51.154;13.812;2023-01-20T06:03:30;98899.78;;;-0.19;100.00
39105;BME280;46464;51.154;13.812;2023-01-20T06:06:04;98901.63;;;-0.27;100.00
39105;BME280;46464;51.154;13.812;2023-01-20T06:08:31;98910.41;;;-0.25;100.00
39105;BME280;46464;51.154;13.812;2023-01-20T06:10:57;98908.59;;;-0.20;100.00
39105;BME280;46464;51.154;13.812;2023-01-20T06:13:24;98914.84;;;-0.27;100.00
39105;BME280;46464;51.154;13.812;2023-01-20T06:15:51;98913.13;;;-0.31;100.00
39105;BME280;46464;51.154;13.812;2023-01-20T06:18:19;98916.66;;;-0.34;100.00
39105;BME280;46464;51.154;13.812;2023-01-20T06:20:45;98913.16;;;-0.36;100.00
39105;BME280;46464;51.154;13.812;2023-01-20T06:23:12;98919.31;;;-0.35;100.00
39105;BME280;46464;51.154;13.812;2023-01-20T06:25:38;98927.91;;;-0.18;100.00
39105;BME280;46464;51.154;13.812;2023-01-20T06:28:04;98928.81;;;-0.20;100.00
39105;BME280;46464;51.154;13.812;2023-01-20T06:30:31;98934.09;;;-0.17;100.00
39105;BME280;46464;51.154;13.812;2023-01-20T06:32:57;98935.00;;;-0.21;100.00
39105;BME280;46464;51.154;13.812;2023-01-20T06:35:24;98929.78;;;-0.27;100.00
39105;BME280;46464;51.154;13.812;2023-01-20T06:37:51;98943.88;;;-0.27;100.00
39105;BME280;46464;51.154;13.812;2023-01-20T06:40:17;98946.53;;;-0.30;100.00
39105;BME280;46464;51.154;13.812;2023-01-20T06:42:44;98944.78;;;-0.29;100.00
39105;BME280;46464;51.154;13.812;2023-01-20T06:45:10;98950.09;;;-0.31;100.00
39105;BME280;46464;51.154;13.812;2023-01-20T06:47:37;98952.72;;;-0.34;100.00
39105;BME280;46464;51.154;13.812;2023-01-20T06:50:04;98948.25;;;-0.26;100.00
39105;BME280;46464;51.154;13.812;2023-01-20T06:52:30;98957.09;;;-0.28;100.00
39105;BME280;46464;51.154;13.812;2023-01-20T06:54:57;98958.88;;;-0.32;100.00
39105;BME280;46464;51.154;13.812;2023-01-20T06:57:24;98959.75;;;-0.31;100.00
39105;BME280;46464;51.154;13.812;2023-01-20T06:59:50;98964.16;;;-0.32;100.00
39105;BME280;46464;51.154;13.812;2023-01-20T07:02:17;98957.94;;;-0.26;100.00
39105;BME280;46464;51.154;13.812;2023-01-20T07:04:43;98961.53;;;-0.35;100.00
39105;BME280;46464;51.154;13.812;2023-01-20T07:07:10;98962.38;;;-0.28;100.00
39105;BME280;46464;51.154;13.812;2023-01-20T07:09:37;98967.63;;;-0.30;100.00
39105;BME280;46464;51.154;13.812;2023-01-20T07:12:03;98971.19;;;-0.31;100.00
39105;BME280;46464;51.154;13.812;2023-01-20T07:14:29;98984.41;;;-0.34;100.00
39105;BME280;46464;51.154;13.812;2023-01-20T07:16:56;98980.00;;;-0.35;100.00
39105;BME280;46464;51.154;13.812;2023-01-20T07:19:22;98991.41;;;-0.28;100.00
39105;BME280;46464;51.154;13.812;2023-01-20T07:21:49;99001.06;;;-0.29;100.00
39105;BME280;46464;51.154;13.812;2023-01-20T07:24:15;98994.94;;;-0.31;100.00
39105;BME280;46464;51.154;13.812;2023-01-20T07:26:43;98998.50;;;-0.35;100.00
39105;BME280;46464;51.154;13.812;2023-01-20T07:29:09;99013.38;;;-0.26;100.00
39105;BME280;46464;51.154;13.812;2023-01-20T07:31:35;99016.00;;;-0.25;100.00
39105;BME280;46464;51.154;13.812;2023-01-20T07:34:02;99023.03;;;-0.25;100.00
39105;BME280;46464;51.154;13.812;2023-01-20T07:36:28;99016.00;;;-0.23;100.00
39105;BME280;46464;51.154;13.812;2023-01-20T07:38:55;99024.75;;;-0.21;100.00
39105;BME280;46464;51.154;13.812;2023-01-20T07:41:21;99031.78;;;-0.19;100.00
39105;BME280;46464;51.154;13.812;2023-01-20T07:43:49;99030.88;;;-0.14;100.00
39105;BME280;46464;51.154;13.812;2023-01-20T07:46:16;99038.88;;;-0.22;100.00
39105;BME280;46464;51.154;13.812;2023-01-20T07:48:43;99041.47;;;-0.21;100.00
39105;BME280;46464;51.154;13.812;2023-01-20T07:51:10;99035.25;;;-0.15;100.00
39105;BME280;46464;51.154;13.812;2023-01-20T07:53:38;99037.03;;;-0.15;100.00
39105;BME280;46464;51.154;13.812;2023-01-20T07:56:18;99050.22;;;-0.12;100.00
39105;BME280;46464;51.154;13.812;2023-01-20T07:58:45;99049.34;;;-0.18;100.00
39105;BME280;46464;51.154;13.812;2023-01-20T08:01:13;99058.13;;;-0.12;100.00
39105;BME280;46464;51.154;13.812;2023-01-20T08:03:41;99061.66;;;-0.15;100.00
39105;BME280;46464;51.154;13.812;2023-01-20T08:06:08;99065.22;;;-0.19;100.00
39105;BME280;46464;51.154;13.812;2023-01-20T08:08:35;99066.97;;;-0.18;100.00
39105;BME280;46464;51.154;13.812;2023-01-20T08:11:02;99081.09;;;-0.24;100.00
39105;BME280;46464;51.154;13.812;2023-01-20T08:13:29;99077.56;;;-0.23;100.00
39105;BME280;46464;51.154;13.812;2023-01-20T08:15:59;99072.25;;;-0.21;100.00
39105;BME280;46464;51.154;13.812;2023-01-20T08:18:26;99079.31;;;-0.22;100.00
39105;BME280;46464;51.154;13.812;2023-01-20T08:20:52;99081.94;;;-0.20;100.00
39105;BME280;46464;51.154;13.812;2023-01-20T08:23:19;99084.53;;;-0.12;100.00
39105;BME280;46464;51.154;13.812;2023-01-20T08:25:45;99092.44;;;-0.09;100.00
39105;BME280;46464;51.154;13.812;2023-01-20T08:28:11;99088.84;;;-0.02;100.00
39105;BME280;46464;51.154;13.812;2023-01-20T08:30:38;99091.50;;;-0.04;100.00
39105;BME280;46464;51.154;13.812;2023-01-20T08:33:05;99094.19;;;-0.11;100.00
39105;BME280;46464;51.154;13.812;2023-01-20T08:35:33;99102.03;;;-0.02;100.00
39105;BME280;46464;51.154;13.812;2023-01-20T08:37:59;99102.97;;;-0.06;100.00
39105;BME280;46464;51.154;13.812;2023-01-20T08:40:25;99104.75;;;-0.08;100.00
39105;BME280;46464;51.154;13.812;2023-01-20T08:42:52;99109.03;;;0.04;100.00
39105;BME280;46464;51.154;13.812;2023-01-20T08:45:18;99109.03;;;0.02;100.00
39105;BME280;46464;51.154;13.812;2023-01-20T08:47:45;99112.63;;;-0.05;100.00
39105;BME280;46464;51.154;13.812;2023-01-20T08:50:12;99119.56;;;0.07;100.00
39105;BME280;46464;51.154;13.812;2023-01-20T08:52:39;99120.47;;;0.06;100.00
39105;BME280;46464;51.154;13.812;2023-01-20T08:55:07;99133.75;;;-0.04;100.00
39105;BME280;46464;51.154;13.812;2023-01-20T08:57:34;99130.19;;;0.01;100.00
39105;BME280;46464;51.154;13.812;2023-01-20T09:00:00;99138.13;;;-0.01;100.00
39105;BME280;46464;51.154;13.812;2023-01-20T09:02:27;99136.44;;;-0.08;100.00
39105;BME280;46464;51.154;13.812;2023-01-20T09:04:53;99136.41;;;-0.07;100.00
39105;BME280;46464;51.154;13.812;2023-01-20T09:07:20;99131.13;;;-0.04;100.00
39105;BME280;46464;51.154;13.812;2023-01-20T09:09:46;99135.53;;;-0.06;100.00
39105;BME280;46464;51.154;13.812;2023-01-20T09:12:13;99139.06;;;-0.07;100.00
39105;BME280;46464;51.154;13.812;2023-01-20T09:14:39;99143.44;;;-0.04;100.00
39105;BME280;46464;51.154;13.812;2023-01-20T09:17:06;99134.59;;;0.02;100.00
39105;BME280;46464;51.154;13.812;2023-01-20T09:19:32;99143.44;;;-0.04;100.00
39105;BME280;46464;51.154;13.812;2023-01-20T09:21:58;99146.94;;;-0.02;100.00
39105;BME280;46464;51.154;13.812;2023-01-20T09:24:25;99147.88;;;-0.06;100.00
39105;BME280;46464;51.154;13.812;2023-01-20T09:26:51;99148.69;;;-0.01;100.00
39105;BME280;46464;51.154;13.812;2023-01-20T09:29:19;99158.38;;;-0.03;100.00
39105;BME280;46464;51.154;13.812;2023-01-20T09:31:49;99157.53;;;-0.04;100.00
39105;BME280;46464;51.154;13.812;2023-01-20T09:34:17;99160.06;;;0.07;100.00
39105;BME280;46464;51.154;13.812;2023-01-20T09:39:16;99159.16;;;0.10;100.00
39105;BME280;46464;51.154;13.812;2023-01-20T09:42:04;99164.47;;;0.07;100.00
39105;BME280;46464;51.154;13.812;2023-01-20T09:45:01;99164.50;;;0.05;100.00
39105;BME280;46464;51.154;13.812;2023-01-20T09:47:30;99172.41;;;0.04;100.00
39105;BME280;46464;51.154;13.812;2023-01-20T09:50:11;99171.53;;;0.03;100.00
39105;BME280;46464;51.154;13.812;2023-01-20T09:55:52;99160.00;;;0.17;100.00
39105;BME280;46464;51.154;13.812;2023-01-20T10:06:13;99159.06;;;0.21;100.00
39105;BME280;46464;51.154;13.812;2023-01-20T10:08:47;99157.34;;;0.17;100.00
39105;BME280;46464;51.154;13.812;2023-01-20T10:11:32;99161.63;;;0.31;100.00
39105;BME280;46464;51.154;13.812;2023-01-20T10:14:04;99166.00;;;0.31;100.00
39105;BME280;46464;51.154;13.812;2023-01-20T10:19:34;99166.13;;;0.20;100.00
39105;BME280;46464;51.154;13.812;2023-01-20T10:22:05;99167.81;;;0.26;100.00
39105;BME280;46464;51.154;13.812;2023-01-20T10:24:37;99179.22;;;0.31;100.00
39105;BME280;46464;51.154;13.812;2023-01-20T10:27:04;99172.22;;;0.27;100.00
39105;BME280;46464;51.154;13.812;2023-01-20T10:29:35;99170.41;;;0.35;100.00
39105;BME280;46464;51.154;13.812;2023-01-20T10:32:04;99174.88;;;0.27;100.00
39105;BME280;46464;51.154;13.812;2023-01-20T10:34:43;99171.34;;;0.25;100.00
39105;BME280;46464;51.154;13.812;2023-01-20T10:37:11;99178.34;;;0.32;100.00
39105;BME280;46464;51.154;13.812;2023-01-20T10:42:22;99175.69;;;0.35;100.00
39105;BME280;46464;51.154;13.812;2023-01-20T10:44:50;99176.63;;;0.28;100.00
39105;BME280;46464;51.154;13.812;2023-01-20T10:50:38;99178.41;;;0.24;100.00
39105;BME280;46464;51.154;13.812;2023-01-20T10:52:49;99180.06;;;0.35;100.00
39105;BME280;46464;51.154;13.812;2023-01-20T10:57:48;99175.66;;;0.37;100.00
39105;BME280;46464;51.154;13.812;2023-01-20T11:00:24;99180.94;;;0.37;100.00
39105;BME280;46464;51.154;13.812;2023-01-20T11:02:50;99180.06;;;0.35;100.00
39105;BME280;46464;51.154;13.812;2023-01-20T11:05:18;99187.16;;;0.31;100.00
39105;BME280;46464;51.154;13.812;2023-01-20T11:07:46;99200.38;;;0.29;100.00
39105;BME280;46464;51.154;13.812;2023-01-20T11:10:14;99196.00;;;0.30;100.00
39105;BME280;46464;51.154;13.812;2023-01-20T11:12:42;99200.28;;;0.42;100.00
39105;BME280;46464;51.154;13.812;2023-01-20T11:15:20;99204.75;;;0.32;100.00
39105;BME280;46464;51.154;13.812;2023-01-20T11:20:33;99195.03;;;0.36;100.00
39105;BME280;46464;51.154;13.812;2023-01-20T11:23:01;99203.84;;;0.38;100.00
39105;BME280;46464;51.154;13.812;2023-01-20T11:25:28;99202.00;;;0.44;100.00
39105;BME280;46464;51.154;13.812;2023-01-20T11:27:54;99206.34;;;0.55;100.00
39105;BME280;46464;51.154;13.812;2023-01-20T11:33:07;99212.50;;;0.55;100.00
39105;BME280;46464;51.154;13.812;2023-01-20T11:35:34;99215.13;;;0.55;100.00
39105;BME280;46464;51.154;13.812;2023-01-20T11:38:19;99216.84;;;0.59;100.00
39105;BME280;46464;51.154;13.812;2023-01-20T11:40:53;99219.63;;;0.48;100.00
39105;BME280;46464;51.154;13.812;2023-01-20T11:43:26;99220.53;;;0.46;100.00
39105;BME280;46464;51.154;13.812;2023-01-20T11:46:07;99227.53;;;0.48;100.00
39105;BME280;46464;51.154;13.812;2023-01-20T11:48:34;99228.34;;;0.57;100.00
39105;BME280;46464;51.154;13.812;2023-01-20T11:51:00;99238.06;;;0.55;100.00
39105;BME280;46464;51.154;13.812;2023-01-20T11:53:28;99235.41;;;0.53;100.00
39105;BME280;46464;51.154;13.812;2023-01-20T11:55:57;99236.31;;;0.51;100.00
39105;BME280;46464;51.154;13.812;2023-01-20T11:58:26;99247.81;;;0.46;100.00
39105;BME280;46464;51.154;13.812;2023-01-20T12:01:01;99241.63;;;0.49;100.00
39105;BME280;46464;51.154;13.812;2023-01-20T12:06:16;99251.31;;;0.50;100.00
39105;BME280;46464;51.154;13.812;2023-01-20T12:08:51;99261.91;;;0.47;100.00
39105;BME280;46464;51.154;13.812;2023-01-20T12:11:27;99261.88;;;0.50;100.00
39105;BME280;46464;51.154;13.812;2023-01-20T12:17:01;99267.28;;;0.38;100.00
39105;BME280;46464;51.154;13.812;2023-01-20T12:19:32;99269.88;;;0.39;100.00
39105;BME280;46464;51.154;13.812;2023-01-20T12:22:04;99268.16;;;0.37;100.00
39105;BME280;46464;51.154;13.812;2023-01-20T12:24:39;99271.63;;;0.42;100.00
39105;BME280;46464;51.154;13.812;2023-01-20T12:27:28;99269.84;;;0.48;100.00
39105;BME280;46464;51.154;13.812;2023-01-20T12:29:57;99273.34;;;0.52;100.00
39105;BME280;46464;51.154;13.812;2023-01-20T12:32:24;99276.84;;;0.50;100.00
39105;BME280;46464;51.154;13.812;2023-01-20T12:34:50;99278.66;;;0.46;100.00
39105;BME280;46464;51.154;13.812;2023-01-20T12:43:04;99285.69;;;0.48;100.00
39105;BME280;46464;51.154;13.812;2023-01-20T12:45:45;99291.97;;;0.34;100.00
39105;BME280;46464;51.154;13.812;2023-01-20T12:53:48;99293.69;;;0.39;100.00
39105;BME280;46464;51.154;13.812;2023-01-20T13:14:26;99305.94;;;0.48;100.00
39105;BME280;46464;51.154;13.812;2023-01-20T13:17:09;99312.13;;;0.47;100.00
39105;BME280;46464;51.154;13.812;2023-01-20T13:19:39;99312.19;;;0.39;100.00
39105;BME280;46464;51.154;13.812;2023-01-20T13:22:10;99318.34;;;0.41;100.00
39105;BME280;46464;51.154;13.812;2023-01-20T13:24:37;99311.25;;;0.43;100.00
39105;BME280;46464;51.154;13.812;2023-01-20T13:27:04;99324.50;;;0.37;100.00
39105;BME280;46464;51.154;13.812;2023-01-20T13:29:40;99314.78;;;0.44;100.00
39105;BME280;46464;51.154;13.812;2023-01-20T13:34:52;99327.19;;;0.34;100.00
39105;BME280;46464;51.154;13.812;2023-01-20T13:37:35;99324.56;;;0.29;100.00
39105;BME280;46464;51.154;13.812;2023-01-20T13:40:02;99332.50;;;0.29;100.00
39105;BME280;46464;51.154;13.812;2023-01-20T13:47:51;99332.47;;;0.31;100.00
39105;BME280;46464;51.154;13.812;2023-01-20T13:58:02;99334.31;;;0.20;100.00
39105;BME280;46464;51.154;13.812;2023-01-20T14:00:28;99342.19;;;0.29;100.00
39105;BME280;46464;51.154;13.812;2023-01-20T14:02:54;99340.50;;;0.20;100.00
39105;BME280;46464;51.154;13.812;2023-01-20T14:05:22;99349.31;;;0.16;100.00
39105;BME280;46464;51.154;13.812;2023-01-20T14:07:49;99345.78;;;0.12;100.00
39105;BME280;46464;51.154;13.812;2023-01-20T14:10:15;99351.97;;;0.14;100.00
39105;BME280;46464;51.154;13.812;2023-01-20T14:12:42;99355.53;;;0.09;100.00
39105;BME280;46464;51.154;13.812;2023-01-20T14:15:22;99352.84;;;0.12;100.00
39105;BME280;46464;51.154;13.812;2023-01-20T14:17:54;99355.50;;;0.07;100.00
39105;BME280;46464;51.154;13.812;2023-01-20T14:20:26;99359.00;;;0.12;100.00
39105;BME280;46464;51.154;13.812;2023-01-20T14:22:53;99366.91;;;0.17;100.00
39105;BME280;46464;51.154;13.812;2023-01-20T14:25:23;99365.19;;;0.11;100.00
39105;BME280;46464;51.154;13.812;2023-01-20T14:27:49;99370.44;;;0.14;100.00